Time;durP1;ratioP1;P1;durP2;ratioP2;P2;SDS_P1;SDS_P2;PMS_P1;PMS_P2;Temp;Humidity;BMP_temperature;BMP_pressure;BME280_temperature;BME280_humidity;BME280_pressure;Samples;Min_cycle;Max_cycle;Signal;HPM_P1;HPM_P2
2021/05/02 00:01:18;;;;;;;17.12;5.45;;;;;;;20.59;59.76;100709.25;143736;742;47010;-87
2021/05/02 00:03:45;;;;;;;14.35;4.47;;;;;;;20.49;60.21;100697.56;143737;578;46018;-87
2021/05/02 00:06:13;;;;;;;17.55;5.30;;;;;;;20.54;59.73;100687.38;143739;564;47008;-88
2021/05/02 00:08:40;;;;;;;16.87;4.93;;;;;;;20.49;59.78;100684.22;143738;564;46025;-81
2021/05/02 00:11:10;;;;;;;13.30;4.50;;;;;;;20.49;59.75;100683.34;143739;633;46010;-80
2021/05/02 00:13:38;;;;;;;16.27;4.95;;;;;;;20.51;59.31;100684.94;143739;675;46008;-79
2021/05/02 00:16:06;;;;;;;15.23;4.93;;;;;;;20.59;59.47;100676.41;143737;586;47006;-79
2021/05/02 00:18:35;;;;;;;16.00;5.37;;;;;;;20.56;59.50;100685.47;143739;577;47008;-79
2021/05/02 00:21:07;;;;;;;18.60;5.22;;;;;;;20.48;59.99;100697.66;143736;575;46018;-79
2021/05/02 00:23:39;;;;;;;16.80;5.32;;;;;;;20.51;59.42;100729.44;143741;573;46008;-79
2021/05/02 00:26:08;;;;;;;20.43;6.03;;;;;;;20.61;59.99;100751.81;143737;666;46020;-79
2021/05/02 00:28:39;;;;;;;22.70;7.05;;;;;;;20.52;61.33;100756.00;143740;593;47008;-79
2021/05/02 00:31:09;;;;;;;18.73;7.05;;;;;;;20.59;60.87;100745.75;143737;633;46010;-80
2021/05/02 00:33:36;;;;;;;21.17;7.10;;;;;;;20.56;61.09;100753.97;143740;593;46008;-80
2021/05/02 00:36:05;;;;;;;18.62;6.80;;;;;;;20.52;61.17;100726.66;143729;580;48008;-79
2021/05/02 00:38:37;;;;;;;16.67;6.35;;;;;;;20.49;60.77;100694.00;143738;692;47011;-79
2021/05/02 00:41:28;;;;;;;14.68;5.70;;;;;;;20.44;60.50;100665.84;143736;590;47020;-86
2021/05/02 00:44:06;;;;;;;16.73;6.00;;;;;;;20.40;60.83;100652.84;143738;589;47008;-88
2021/05/02 00:46:48;;;;;;;15.32;5.37;;;;;;;20.38;60.11;100628.97;143742;567;47011;-86
2021/05/02 00:50:00;;;;;;;19.62;6.22;;;;;;;20.37;60.41;100616.59;143741;744;47010;-86
2021/05/02 00:53:13;;;;;;;17.52;5.78;;;;;;;20.26;61.58;100619.16;143738;645;46019;-88
2021/05/02 00:55:57;;;;;;;16.73;5.82;;;;;;;20.25;61.00;100634.28;143738;586;46018;-81
2021/05/02 00:58:51;;;;;;;;;;;;;;;20.26;60.89;100651.16;143742;982;47008;-84
2021/05/02 01:01:23;;;;;;;20.10;6.68;;;;;;;20.17;62.73;100673.12;143750;682;47011;-91
2021/05/02 01:03:52;;;;;;;20.17;7.03;;;;;;;20.12;62.61;100686.78;143739;570;46012;-85
2021/05/02 01:06:25;;;;;;;19.30;7.20;;;;;;;20.14;62.25;100668.84;143739;586;46013;-86
2021/05/02 01:08:56;;;;;;;22.70;7.57;;;;;;;20.06;61.77;100674.69;143735;694;47010;-93
2021/05/02 01:11:26;;;;;;;26.58;6.90;;;;;;;20.07;61.79;100683.56;143741;569;46010;-86
2021/05/02 01:14:00;;;;;;;22.17;7.37;;;;;;;20.06;61.58;100690.69;143739;591;46012;-87
2021/05/02 01:16:34;;;;;;;18.58;6.40;;;;;;;20.11;61.12;100680.56;143738;592;46030;-87
2021/05/02 01:19:09;;;;;;;20.95;7.50;;;;;;;20.11;60.96;100675.25;143739;716;46010;-85
2021/05/02 01:21:42;;;;;;;23.25;6.82;;;;;;;20.21;60.55;100677.28;143740;742;46018;-86
2021/05/02 01:24:12;;;;;;;24.27;7.60;;;;;;;20.21;61.00;100691.44;143738;587;47012;-90
2021/05/02 01:26:43;;;;;;;21.02;7.20;;;;;;;20.17;60.47;100702.44;143739;570;46010;-88
2021/05/02 01:29:13;;;;;;;21.20;7.10;;;;;;;20.25;60.70;100698.28;143734;597;47010;-88
2021/05/02 01:31:42;;;;;;;21.87;7.87;;;;;;;20.23;60.49;100670.87;143738;616;47012;-88
2021/05/02 01:34:10;;;;;;;24.92;7.10;;;;;;;20.09;60.86;100661.19;143735;634;46020;-88
2021/05/02 01:36:37;;;;;;;21.80;7.62;;;;;;;19.95;61.61;100638.13;143740;581;46013;-87
2021/05/02 01:39:08;;;;;;;20.83;6.90;;;;;;;19.93;61.29;100633.87;143739;586;46010;-87
2021/05/02 01:41:36;;;;;;;19.98;7.05;;;;;;;19.92;60.71;100637.50;143741;569;46016;-86
2021/05/02 01:44:04;;;;;;;18.45;6.18;;;;;;;19.94;60.83;100611.59;143736;669;46015;-93
2021/05/02 01:46:39;;;;;;;20.90;6.55;;;;;;;20.02;60.74;100601.25;143740;567;46010;-83
2021/05/02 01:49:11;;;;;;;19.90;6.12;;;;;;;20.06;60.76;100605.41;143737;571;47012;-86
2021/05/02 01:51:39;;;;;;;22.75;5.57;;;;;;;19.94;60.57;100614.25;143740;564;46019;-92
2021/05/02 01:54:07;;;;;;;16.80;5.50;;;;;;;19.88;60.40;100634.19;143739;583;46018;-93
2021/05/02 01:56:37;;;;;;;18.80;5.22;;;;;;;19.72;60.61;100629.00;143740;590;46018;-89
2021/05/02 01:59:05;;;;;;;19.50;5.90;;;;;;;19.85;60.74;100661.03;143735;619;47011;-85
2021/05/02 02:01:33;;;;;;;18.15;5.28;;;;;;;19.88;60.15;100667.97;143739;565;46018;-84
2021/05/02 02:04:05;;;;;;;18.85;5.20;;;;;;;19.83;59.84;100673.59;143739;610;46022;-83
2021/05/02 02:06:34;;;;;;;15.73;5.25;;;;;;;19.71;60.19;100655.75;143738;564;46026;-85
2021/05/02 02:09:09;;;;;;;12.85;4.70;;;;;;;19.68;60.14;100639.97;143741;589;46010;-87
2021/05/02 02:11:37;;;;;;;17.70;4.80;;;;;;;19.57;60.28;100630.03;143742;733;46012;-84
2021/05/02 02:14:04;;;;;;;13.62;4.28;;;;;;;19.60;59.70;100609.41;143735;585;47013;-86
2021/05/02 02:16:32;;;;;;;18.45;4.50;;;;;;;19.62;59.19;100598.62;143739;647;46019;-84
2021/05/02 02:18:59;;;;;;;13.23;4.10;;;;;;;19.45;59.52;100587.31;143742;591;46010;-85
2021/05/02 02:21:26;;;;;;;15.55;4.47;;;;;;;19.47;59.81;100581.88;143741;570;47012;-90
2021/05/02 02:24:00;;;;;;;27.33;5.35;;;;;;;19.54;59.36;100569.84;143736;598;46014;-88
2021/05/02 02:26:53;;;;;;;19.65;5.32;;;;;;;19.47;59.40;100578.38;143737;564;45046;-87
2021/05/02 02:29:20;;;;;;;16.75;4.87;;;;;;;19.33;60.22;100611.22;143738;585;47010;-87
2021/05/02 02:31:51;;;;;;;20.23;5.45;;;;;;;19.34;60.47;100640.44;143740;572;46018;-87
2021/05/02 02:34:22;;;;;;;18.33;6.70;;;;;;;19.33;61.89;100657.34;143736;585;47020;-82
2021/05/02 02:36:50;;;;;;;18.33;5.53;;;;;;;19.47;60.78;100668.91;143739;582;46019;-85
2021/05/02 02:39:17;;;;;;;19.45;5.93;;;;;;;19.54;60.63;100688.84;143739;587;47012;-86
2021/05/02 02:41:47;;;;;;;25.08;5.40;;;;;;;19.43;60.34;100665.59;143740;579;47012;-89
2021/05/02 02:44:15;;;;;;;16.12;5.22;;;;;;;19.65;59.96;100677.47;143737;570;47012;-91
2021/05/02 02:46:48;;;;;;;19.77;4.68;;;;;;;19.64;59.69;100660.63;143739;585;47010;-78
2021/05/02 02:49:21;;;;;;;18.37;4.78;;;;;;;19.70;58.89;100652.25;143739;644;47012;-79
2021/05/02 02:51:53;;;;;;;17.58;4.60;;;;;;;19.60;59.53;100652.00;143740;566;46019;-79
2021/05/02 02:54:23;;;;;;;15.80;4.47;;;;;;;19.58;59.24;100648.56;143738;645;46027;-79
2021/05/02 02:56:57;;;;;;;15.10;4.22;;;;;;;19.65;58.92;100643.69;143741;574;46012;-82
2021/05/02 02:59:31;;;;;;;17.27;5.10;;;;;;;19.70;58.71;100643.41;143740;591;47010;-79
2021/05/02 03:01:59;;;;;;;;;;;;;;;19.68;58.67;100662.12;143745;979;47010;-83
2021/05/02 03:04:29;;;;;;;17.10;4.87;;;;;;;19.65;58.68;100673.00;143750;583;47010;-81
2021/05/02 03:07:00;;;;;;;19.40;5.12;;;;;;;19.61;58.97;100671.50;143738;602;47018;-81
2021/05/02 03:09:28;;;;;;;18.70;4.43;;;;;;;19.65;58.59;100673.00;143742;624;46009;-85
2021/05/02 03:11:55;;;;;;;23.98;4.50;;;;;;;19.64;58.86;100671.28;143740;603;47008;-84
2021/05/02 03:14:22;;;;;;;14.10;4.40;;;;;;;19.64;58.75;100681.09;143738;564;46020;-87
2021/05/02 03:16:53;;;;;;;17.40;4.75;;;;;;;19.66;58.74;100688.03;143741;607;46008;-92
2021/05/02 03:24:43;;;;;;;14.52;4.78;;;;;;;19.84;56.39;100634.50;143740;601;46012;-89
2021/05/02 03:27:27;;;;;;;21.83;5.10;;;;;;;19.61;56.93;100629.75;143741;576;45044;-91
2021/05/02 03:29:58;;;;;;;21.10;4.45;;;;;;;20.08;56.26;100694.13;143737;696;46028;-88
2021/05/02 03:32:31;;;;;;;15.57;4.15;;;;;;;19.94;57.15;100699.50;143740;612;46018;-81
2021/05/02 03:35:00;;;;;;;17.65;4.82;;;;;;;19.84;57.13;100695.78;143743;563;46018;-83
2021/05/02 03:37:34;;;;;;;13.75;4.20;;;;;;;19.64;57.13;100703.25;143742;564;46008;-83
2021/05/02 03:40:04;;;;;;;14.35;4.30;;;;;;;19.63;57.14;100698.88;143739;580;46020;-85
2021/05/02 03:42:34;;;;;;;18.17;4.05;;;;;;;19.58;57.56;100703.66;143741;589;46020;-85
2021/05/02 03:45:03;;;;;;;15.38;3.75;;;;;;;19.55;57.37;100714.53;143740;583;46019;-86
2021/05/02 03:47:30;;;;;;;17.70;4.20;;;;;;;19.47;57.28;100708.84;143741;563;46008;-84
2021/05/02 03:49:57;;;;;;;16.37;4.25;;;;;;;19.33;57.62;100718.59;143744;566;46008;-82
2021/05/02 03:52:24;;;;;;;15.18;3.72;;;;;;;19.31;57.20;100719.63;143741;576;47011;-82
2021/05/02 03:54:53;;;;;;;17.83;3.80;;;;;;;19.27;57.49;100722.50;143739;564;47020;-83
2021/05/02 03:57:20;;;;;;;15.40;3.70;;;;;;;19.25;57.24;100720.88;143741;583;46008;-90
2021/05/02 03:59:48;;;;;;;14.43;3.65;;;;;;;19.21;57.38;100722.03;143740;585;46008;-88
2021/05/02 04:02:16;;;;;;;18.17;3.78;;;;;;;19.13;57.71;100717.19;143742;586;47006;-79
2021/05/02 04:04:45;;;;;;;16.62;4.55;;;;;;;19.14;57.75;100710.09;143740;563;46018;-84
2021/05/02 04:07:14;;;;;;;19.25;4.47;;;;;;;19.16;57.72;100713.47;143742;606;47009;-84
2021/05/02 04:09:46;;;;;;;18.73;4.90;;;;;;;19.21;58.03;100703.41;143738;651;46008;-89
2021/05/02 04:12:13;;;;;;;17.50;4.65;;;;;;;19.30;57.91;100721.44;143742;697;46018;-83
2021/05/02 04:14:41;;;;;;;17.25;4.72;;;;;;;19.34;57.91;100720.28;143740;584;46019;-84
2021/05/02 04:17:16;;;;;;;16.30;4.57;;;;;;;19.40;58.35;100733.19;143739;585;46008;-92
2021/05/02 04:19:47;;;;;;;18.23;4.47;;;;;;;19.53;58.37;100727.06;143740;587;46020;-87
2021/05/02 04:22:17;;;;;;;14.90;4.55;;;;;;;19.54;58.01;100718.13;143741;571;46008;-78
2021/05/02 04:24:46;;;;;;;14.85;4.12;;;;;;;19.49;57.90;100722.91;143737;653;46907;-78
2021/05/02 04:27:17;;;;;;;20.37;5.28;;;;;;;19.47;57.82;100720.34;143739;569;47008;-79
2021/05/02 04:29:44;;;;;;;17.55;4.43;;;;;;;19.42;58.21;100718.00;143741;668;46021;-78
2021/05/02 04:32:11;;;;;;;14.65;4.75;;;;;;;19.34;58.04;100717.63;143743;615;47010;-78
2021/05/02 04:34:39;;;;;;;61.40;34.78;;;;;;;19.39;58.14;100718.16;143739;596;46018;-79
2021/05/02 04:37:06;;;;;;;30.77;17.12;;;;;;;19.39;57.82;100715.50;143739;564;47008;-79
2021/05/02 04:39:33;;;;;;;19.52;8.55;;;;;;;19.37;58.06;100728.06;143743;582;46010;-78
2021/05/02 04:42:00;;;;;;;20.27;4.93;;;;;;;19.33;57.93;100737.22;143742;571;46016;-77
2021/05/02 04:44:27;;;;;;;20.55;5.12;;;;;;;19.32;58.30;100745.31;143738;571;47023;-77
2021/05/02 04:46:54;;;;;;;15.90;4.60;;;;;;;19.36;57.96;100747.66;143741;569;46018;-81
2021/05/02 04:49:23;;;;;;;23.60;9.90;;;;;;;19.42;58.04;100730.44;143740;598;46024;-81
2021/05/02 04:51:50;;;;;;;19.62;6.78;;;;;;;19.32;58.02;100732.84;143740;577;46019;-81
2021/05/02 04:54:17;;;;;;;20.45;7.72;;;;;;;19.34;58.25;100730.94;143738;716;47022;-81
2021/05/02 04:56:44;;;;;;;51.33;27.52;;;;;;;19.34;58.32;100730.06;143742;583;46008;-80
2021/05/02 04:59:11;;;;;;;52.97;27.98;;;;;;;19.49;57.97;100733.53;143738;566;48008;-80
2021/05/02 05:01:40;;;;;;;77.82;37.90;;;;;;;19.43;58.08;100722.34;143742;590;47010;-80
2021/05/02 05:04:07;;;;;;;33.55;16.00;;;;;;;19.54;58.30;100710.97;143738;581;47906;-80
2021/05/02 05:06:35;;;;;;;45.35;21.75;;;;;;;19.59;58.62;100718.69;143741;595;45026;-80
2021/05/02 05:09:05;;;;;;;32.00;15.55;;;;;;;19.57;58.68;100699.28;143742;565;47008;-80
2021/05/02 05:11:33;;;;;;;32.00;13.80;;;;;;;19.78;58.31;100721.84;143743;585;46018;-80
2021/05/02 05:14:00;;;;;;;32.45;14.80;;;;;;;19.83;59.44;100723.38;143736;623;47020;-80
2021/05/02 05:16:29;;;;;;;34.53;16.15;;;;;;;19.91;59.19;100719.22;143741;585;46008;-78
2021/05/02 05:18:56;;;;;;;31.62;15.55;;;;;;;20.08;58.75;100720.75;143740;685;47008;-82
2021/05/02 05:21:23;;;;;;;32.28;16.87;;;;;;;20.16;59.04;100733.59;143744;613;46008;-84
2021/05/02 05:23:50;;;;;;;33.97;16.05;;;;;;;20.24;59.24;100765.91;143738;566;47022;-84
2021/05/02 05:26:17;;;;;;;36.53;19.35;;;;;;;20.32;59.69;100757.34;143740;642;47008;-82
2021/05/02 05:28:44;;;;;;;32.58;18.98;;;;;;;20.42;59.66;100753.13;143742;674;45021;-81
2021/05/02 05:31:11;;;;;;;37.15;19.90;;;;;;;20.54;60.05;100758.56;143736;571;47018;-82
2021/05/02 05:33:38;;;;;;;28.73;13.90;;;;;;;20.68;59.68;100760.25;143739;563;46022;-87
2021/05/02 05:36:06;;;;;;;43.42;19.23;;;;;;;20.85;59.69;100749.28;143741;605;47008;-85
2021/05/02 05:38:33;;;;;;;44.05;20.17;;;;;;;21.00;59.55;100752.69;143744;569;46008;-84
2021/05/02 05:41:00;;;;;;;40.40;20.42;;;;;;;21.23;59.73;100763.53;143744;581;46010;-80
2021/05/02 05:43:27;;;;;;;37.03;19.90;;;;;;;21.37;59.76;100759.88;143741;570;46019;-79
2021/05/02 05:45:54;;;;;;;53.15;30.80;;;;;;;21.43;59.25;100764.75;143737;601;46018;-78
2021/05/02 05:48:21;;;;;;;49.38;26.30;;;;;;;21.63;58.99;100764.16;143740;563;46020;-79
2021/05/02 05:50:49;;;;;;;41.85;24.35;;;;;;;21.69;59.19;100762.84;143742;599;46016;-79
2021/05/02 05:53:17;;;;;;;43.60;24.05;;;;;;;21.43;59.07;100698.84;143741;598;46010;-79
2021/05/02 05:55:45;;;;;;;38.05;22.23;;;;;;;21.83;59.01;100766.31;143738;563;47008;-77
2021/05/02 05:58:12;;;;;;;37.20;21.37;;;;;;;21.91;58.78;100769.28;143741;608;46019;-92
2021/05/02 06:00:39;;;;;;;37.55;20.80;;;;;;;22.02;58.60;100764.00;143744;569;46010;-94
2021/05/02 06:03:06;;;;;;;34.65;19.30;;;;;;;22.11;58.21;100739.22;143742;638;46010;-82
2021/05/02 06:05:34;;;;;;;40.70;22.98;;;;;;;22.28;58.43;100729.91;143741;592;46027;-81
2021/05/02 06:08:01;;;;;;;45.53;21.92;;;;;;;22.36;57.13;100715.97;143741;648;47010;-81
2021/05/02 06:10:28;;;;;;;43.83;22.60;;;;;;;22.39;56.49;100714.87;143742;629;46018;-81
2021/05/02 06:12:55;;;;;;;42.95;20.80;;;;;;;22.39;57.40;100697.00;143739;570;47011;-81
2021/05/02 06:15:22;;;;;;;50.03;28.48;;;;;;;22.66;57.46;100711.84;143740;564;46010;-83
2021/05/02 06:17:49;;;;;;;108.05;60.35;;;;;;;22.64;56.47;100708.47;143743;591;46010;-83
2021/05/02 06:20:16;;;;;;;70.15;41.40;;;;;;;22.75;57.50;100713.81;143738;610;47008;-82
2021/05/02 06:22:44;;;;;;;82.62;46.58;;;;;;;22.77;56.65;100729.75;143735;603;47021;-82
2021/05/02 06:25:12;;;;;;;72.53;38.40;;;;;;;22.80;56.93;100751.78;143741;633;47008;-80
2021/05/02 06:27:40;;;;;;;42.17;20.52;;;;;;;22.86;57.52;100745.06;143741;585;46021;-83
2021/05/02 06:30:08;;;;;;;34.25;16.40;;;;;;;22.86;57.66;100754.94;143743;598;47010;-86
2021/05/02 06:32:38;;;;;;;34.80;15.43;;;;;;;22.96;57.31;100750.53;143738;580;47020;-86
2021/05/02 06:35:07;;;;;;;36.08;17.40;;;;;;;23.12;57.23;100750.16;143740;573;47010;-85
2021/05/02 06:37:34;;;;;;;34.35;17.58;;;;;;;23.10;56.40;100731.56;143740;594;46021;-85
2021/05/02 06:40:02;;;;;;;41.45;18.50;;;;;;;23.21;57.31;100732.53;143741;578;46018;-84
2021/05/02 06:42:29;;;;;;;38.78;20.25;;;;;;;23.43;57.42;100735.16;143740;580;47010;-86
2021/05/02 06:44:56;;;;;;;43.75;24.25;;;;;;;23.41;54.64;100726.38;143743;586;46008;-88
2021/05/02 06:47:23;;;;;;;53.03;30.02;;;;;;;23.41;54.36;100730.91;143740;572;47008;-80
2021/05/02 06:49:51;;;;;;;57.88;28.00;;;;;;;23.53;56.10;100737.94;143741;593;47010;-87
2021/05/02 06:52:18;;;;;;;55.55;30.95;;;;;;;23.55;54.90;100736.00;143742;570;46010;-84
2021/05/02 06:54:46;;;;;;;38.35;17.50;;;;;;;23.47;55.08;100739.31;143740;596;46018;-91
2021/05/02 06:57:14;;;;;;;35.03;15.23;;;;;;;23.60;55.52;100738.28;143738;564;46021;-89
2021/05/02 06:59:42;;;;;;;22.52;9.75;;;;;;;23.93;56.19;100733.78;143743;589;47008;-89
2021/05/02 07:02:09;;;;;;;33.92;13.15;;;;;;;24.02;55.65;100743.75;143739;753;46024;-86
2021/05/02 07:04:36;;;;;;;29.45;12.10;;;;;;;24.32;55.35;100742.13;143741;566;46019;-88
2021/05/02 07:07:04;;;;;;;31.30;13.60;;;;;;;24.25;55.77;100736.44;143743;566;46010;-79
2021/05/02 07:09:31;;;;;;;47.75;22.20;;;;;;;24.37;56.08;100729.13;143743;587;46026;-81
2021/05/02 07:11:59;;;;;;;44.67;21.70;;;;;;;24.48;54.97;100739.81;143742;582;46019;-79
2021/05/02 07:14:27;;;;;;;71.05;38.15;;;;;;;24.36;54.96;100723.91;143740;625;46008;-79
2021/05/02 07:16:54;;;;;;;42.58;19.37;;;;;;;24.50;54.23;100743.19;143740;563;47008;-90
2021/05/02 07:19:22;;;;;;;44.85;21.95;;;;;;;24.35;53.71;100722.22;143738;607;47008;-89
2021/05/02 07:21:57;;;;;;;41.80;19.60;;;;;;;24.56;54.65;100751.72;143737;583;47012;-83
2021/05/02 07:24:24;;;;;;;34.22;16.33;;;;;;;24.66;54.38;100763.41;143738;599;46030;-82
2021/05/02 07:26:51;;;;;;;48.72;28.10;;;;;;;24.77;54.50;100766.00;143743;616;46010;-84
2021/05/02 07:29:18;;;;;;;33.17;15.50;;;;;;;24.89;55.53;100765.87;143740;564;47019;-82
2021/05/02 07:31:46;;;;;;;42.00;22.37;;;;;;;25.04;55.83;100772.56;143739;563;47022;-85
2021/05/02 07:34:15;;;;;;;46.28;23.40;;;;;;;25.14;55.14;100781.53;143743;609;46008;-81
2021/05/02 07:36:43;;;;;;;50.67;26.33;;;;;;;25.23;55.24;100770.97;143742;635;47010;-82
2021/05/02 07:39:10;;;;;;;29.77;13.35;;;;;;;25.31;54.99;100753.16;143743;599;46008;-84
2021/05/02 07:41:37;;;;;;;33.45;15.88;;;;;;;25.13;54.14;100752.13;143741;634;46010;-85
2021/05/02 07:44:05;;;;;;;37.80;20.27;;;;;;;25.18;55.02;100731.91;143742;632;46008;-86
2021/05/02 07:46:32;;;;;;;57.28;30.88;;;;;;;25.36;55.50;100733.09;143743;569;46006;-88
2021/05/02 07:48:59;;;;;;;57.40;30.05;;;;;;;25.33;55.27;100724.34;143740;628;47010;-84
2021/05/02 07:51:27;;;;;;;82.35;45.30;;;;;;;25.38;53.76;100736.53;143739;569;46021;-76
2021/05/02 07:53:54;;;;;;;61.72;34.90;;;;;;;25.56;53.92;100750.13;143739;589;46008;-78
2021/05/02 07:56:21;;;;;;;46.20;24.42;;;;;;;25.60;55.14;100749.72;143738;589;47009;-81
2021/05/02 07:58:48;;;;;;;43.42;21.90;;;;;;;25.78;54.58;100755.25;143743;575;46010;-81
2021/05/02 08:01:15;;;;;;;35.63;18.45;;;;;;;25.98;54.31;100747.16;143739;566;47010;-81
2021/05/02 08:03:42;;;;;;;37.97;21.27;;;;;;;26.07;54.20;100749.03;143740;599;46018;-82
2021/05/02 08:06:09;;;;;;;43.35;22.92;;;;;;;26.26;52.29;100758.94;143742;639;46010;-84
2021/05/02 08:08:36;;;;;;;33.90;19.00;;;;;;;26.27;52.89;100766.00;143743;624;47010;-83
2021/05/02 08:11:03;;;;;;;39.65;20.58;;;;;;;26.51;52.20;100762.81;143735;639;47010;-81
2021/05/02 08:13:31;;;;;;;42.58;19.17;;;;;;;26.50;50.44;100758.47;143742;609;46016;-83
2021/05/02 08:15:58;;;;;;;35.17;16.08;;;;;;;26.39;50.59;100747.84;143740;642;47008;-82
2021/05/02 08:18:25;;;;;;;32.92;14.95;;;;;;;26.52;51.89;100748.38;143743;857;46008;-82
2021/05/02 08:20:52;;;;;;;35.15;16.50;;;;;;;26.50;50.81;100725.28;143739;566;46021;-83
2021/05/02 08:23:19;;;;;;;27.00;10.85;;;;;;;26.50;47.00;100714.53;143741;791;47010;-82
2021/05/02 08:25:46;;;;;;;30.27;11.30;;;;;;;26.40;44.30;100690.31;143741;738;47006;-82
2021/05/02 08:28:14;;;;;;;53.20;26.62;;;;;;;26.71;49.92;100698.19;143743;642;46019;-82
2021/05/02 08:30:41;;;;;;;54.72;25.37;;;;;;;26.68;45.98;100684.97;143743;708;46010;-84
2021/05/02 08:33:08;;;;;;;45.63;23.65;;;;;;;26.76;47.56;100689.66;143742;787;46008;-84
2021/05/02 08:35:35;;;;;;;36.92;16.80;;;;;;;26.77;45.70;100691.34;143740;825;46008;-81
2021/05/02 08:38:04;;;;;;;35.65;16.55;;;;;;;26.83;45.19;100688.03;143744;704;46010;-82
2021/05/02 08:40:31;;;;;;;39.40;18.75;;;;;;;26.91;47.18;100690.84;143739;566;46028;-82
2021/05/02 08:43:05;;;;;;;28.77;12.55;;;;;;;27.00;48.77;100691.81;143741;611;46019;-82
2021/05/02 08:45:36;;;;;;;41.85;18.52;;;;;;;27.18;48.61;100689.13;143742;709;46010;-82
2021/05/02 08:48:04;;;;;;;40.08;17.37;;;;;;;27.21;48.91;100678.03;143742;656;47008;-82
2021/05/02 08:50:33;;;;;;;71.12;23.17;;;;;;;27.35;48.63;100684.75;143738;588;46019;-83
2021/05/02 08:53:00;;;;;;;43.40;20.17;;;;;;;27.52;48.97;100694.72;143741;569;46008;-83
2021/05/02 08:55:28;;;;;;;81.65;24.73;;;;;;;27.57;46.23;100698.81;143741;751;46008;-83
2021/05/02 08:57:55;;;;;;;74.28;24.77;;;;;;;27.70;45.69;100697.41;143744;593;46018;-82
2021/05/02 09:00:23;;;;;;;45.67;21.45;;;;;;;28.01;48.58;100693.47;143739;579;46905;-79
2021/05/02 09:02:57;;;;;;;39.55;17.65;;;;;;;28.02;47.29;100652.84;143740;617;46018;-86
2021/05/02 09:05:24;;;;;;;44.83;19.62;;;;;;;28.26;43.04;100653.16;143742;583;45021;-84
2021/05/02 09:07:52;;;;;;;46.85;24.05;;;;;;;28.30;45.20;100647.28;143739;587;47010;-85
2021/05/02 09:10:21;;;;;;;40.53;19.08;;;;;;;28.54;45.92;100643.84;143731;613;46020;-86
2021/05/02 09:13:01;;;;;;;44.80;24.58;;;;;;;28.58;41.87;100644.34;143737;574;46009;-84
2021/05/02 09:15:29;;;;;;;44.00;22.35;;;;;;;28.57;41.06;100636.41;143739;591;47008;-84
2021/05/02 09:18:12;;;;;;;54.10;28.15;;;;;;;28.48;40.67;100646.34;143738;571;46026;-85
2021/05/02 09:20:57;;;;;;;44.55;18.27;;;;;;;28.71;42.97;100643.94;143738;599;46010;-85
2021/05/02 09:23:36;;;;;;;53.38;27.00;;;;;;;28.78;42.77;100636.03;143739;588;46010;-85
2021/05/02 09:26:05;;;;;;;35.10;17.77;;;;;;;28.76;41.40;100633.50;143737;625;46020;-84
2021/05/02 09:28:53;;;;;;;43.00;21.02;;;;;;;28.61;41.02;100635.94;143741;589;47006;-85
2021/05/02 09:31:29;;;;;;;61.20;32.42;;;;;;;28.66;41.52;100635.47;143735;564;46020;-85
2021/05/02 09:34:18;;;;;;;38.70;17.83;;;;;;;29.17;42.38;100644.41;143738;619;46010;-84
2021/05/02 09:37:04;;;;;;;85.82;44.65;;;;;;;29.23;42.82;100642.06;143740;576;46020;-84
2021/05/02 09:39:57;;;;;;;73.70;34.40;;;;;;;29.13;40.89;100651.16;143741;577;46018;-84
2021/05/02 09:42:50;;;;;;;;;;;;;;;;;;;;;
2021/05/02 09:45:17;;;;;;;26.08;10.52;;;;;;;29.13;39.07;100650.28;143738;599;46018;-83
2021/05/02 09:47:47;;;;;;;38.63;14.63;;;;;;;29.24;36.48;100649.12;143737;605;46020;-84
2021/05/02 09:50:25;;;;;;;45.03;19.60;;;;;;;28.80;35.32;100642.09;143741;589;46008;-84
2021/05/02 09:53:06;;;;;;;38.08;16.08;;;;;;;28.89;37.12;100640.28;143738;569;46018;-83
2021/05/02 09:55:41;;;;;;;43.53;21.17;;;;;;;28.78;36.08;100634.16;143738;574;46018;-83
2021/05/02 09:58:18;;;;;;;50.30;23.45;;;;;;;28.60;34.76;100647.75;143739;583;46905;-82
2021/05/02 10:01:04;;;;;;;35.33;13.15;;;;;;;28.75;33.93;100634.50;143739;622;47008;-83
2021/05/02 10:03:32;;;;;;;42.28;20.40;;;;;;;28.32;34.91;100628.22;143736;607;47013;-82
2021/05/02 10:06:11;;;;;;;32.88;16.30;;;;;;;28.19;36.33;100632.19;143739;563;46010;-84
2021/05/02 10:08:40;;;;;;;40.83;19.02;;;;;;;28.32;36.35;100633.59;143740;583;46018;-85
2021/05/02 10:11:11;;;;;;;35.25;17.45;;;;;;;28.08;37.56;100643.28;143739;601;46018;-86
2021/05/02 10:13:42;;;;;;;34.47;14.30;;;;;;;28.19;37.52;100634.91;143738;563;46027;-85
2021/05/02 10:16:10;;;;;;;30.62;12.13;;;;;;;28.33;37.60;100638.00;143737;586;46018;-86
2021/05/02 10:18:38;;;;;;;45.33;20.37;;;;;;;28.53;38.87;100627.81;143741;581;46008;-86
2021/05/02 10:21:07;;;;;;;55.12;20.52;;;;;;;28.63;38.19;100608.78;143739;636;46018;-84
2021/05/02 10:23:39;;;;;;;37.58;19.05;;;;;;;28.65;38.68;100612.16;143740;570;46012;-86
2021/05/02 10:26:06;;;;;;;41.00;20.55;;;;;;;28.74;39.11;100608.50;143739;590;46010;-84
2021/05/02 10:28:36;;;;;;;37.65;19.33;;;;;;;28.68;38.19;100606.47;143742;638;46010;-87
2021/05/02 10:31:06;;;;;;;38.72;20.05;;;;;;;28.87;37.89;100605.34;143740;610;47010;-85
2021/05/02 10:33:45;;;;;;;39.85;18.98;;;;;;;28.98;39.40;100598.75;143737;588;46022;-80
2021/05/02 10:36:20;;;;;;;42.30;20.75;;;;;;;29.09;39.55;100603.84;143738;586;47008;-80
2021/05/02 10:38:58;;;;;;;48.45;27.05;;;;;;;29.20;39.99;100608.91;143739;599;46020;-80
2021/05/02 10:41:35;;;;;;;39.20;21.05;;;;;;;29.31;39.66;100612.34;143741;644;46022;-85
2021/05/02 10:44:34;;;;;;;29.95;13.60;;;;;;;29.21;40.18;100610.63;143734;577;46022;-80
2021/05/02 10:47:03;;;;;;;48.97;26.33;;;;;;;29.04;39.96;100608.91;143740;600;46008;-80
2021/05/02 10:49:53;;;;;;;65.40;35.63;;;;;;;28.64;39.17;100578.09;143741;645;46008;-81
2021/05/02 10:52:44;;;;;;;51.72;25.77;;;;;;;28.70;40.75;100593.63;143741;638;47010;-81
2021/05/02 10:55:14;;;;;;;49.35;27.35;;;;;;;28.85;40.97;100591.12;143739;561;46010;-80
2021/05/02 10:57:41;;;;;;;59.47;32.42;;;;;;;29.01;40.35;100587.62;143739;572;46018;-80
2021/05/02 11:00:13;;;;;;;54.08;26.87;;;;;;;29.15;40.63;100581.53;143738;640;47006;-78
2021/05/02 11:02:48;;;;;;;54.10;27.02;;;;;;;29.48;39.81;100573.47;143741;581;47001;-72
2021/05/02 11:05:22;;;;;;;60.00;30.75;;;;;;;29.37;39.59;100574.69;143736;575;47906;-81
2021/05/02 11:07:56;;;;;;;54.78;30.02;;;;;;;29.27;39.52;100578.56;143740;588;46008;-81
2021/05/02 11:10:24;;;;;;;66.65;35.45;;;;;;;29.22;39.98;100584.44;143738;609;46021;-77
2021/05/02 11:12:51;;;;;;;51.40;23.87;;;;;;;29.31;39.23;100583.44;143740;590;47010;-82
2021/05/02 11:15:47;;;;;;;67.85;34.45;;;;;;;29.21;37.10;100556.56;143738;604;46032;-80
2021/05/02 11:18:24;;;;;;;46.37;23.08;;;;;;;29.57;39.02;100563.50;143739;579;46010;-81
2021/05/02 11:20:53;;;;;;;37.65;18.02;;;;;;;29.65;37.21;100559.91;143739;583;46008;-82
2021/05/02 11:24:01;;;;;;;41.58;19.23;;;;;;;29.84;38.11;100547.88;143741;563;47010;-81
2021/05/02 11:27:13;;;;;;;34.55;15.82;;;;;;;29.90;36.83;100562.63;143738;575;46019;-81
2021/05/02 11:30:17;;;;;;;29.20;12.45;;;;;;;30.09;37.30;100547.84;143739;586;46018;-80
2021/05/02 11:32:44;;;;;;;;;;;;;;;30.31;37.33;100544.34;143743;981;46020;-80
2021/05/02 11:35:45;;;;;;;31.48;14.77;;;;;;;30.48;36.37;100533.47;143752;616;47012;-80
2021/05/02 11:38:17;;;;;;;25.35;9.63;;;;;;;30.76;34.16;100541.09;143738;563;46012;-79